createdAt,value
2023-08-29T00:00:59.553Z,68.80
2023-08-29T00:03:32.165Z,68.80
2023-08-29T00:06:06.010Z,68.80
2023-08-29T00:08:34.582Z,68.60
2023-08-29T00:11:03.908Z,68.50
2023-08-29T00:13:31.086Z,68.50
2023-08-29T00:15:58.548Z,68.60
2023-08-29T00:18:25.633Z,68.50
2023-08-29T00:20:53.323Z,68.40
2023-08-29T00:23:20.188Z,68.50
2023-08-29T00:25:49.660Z,68.50
2023-08-29T00:28:16.545Z,68.40
2023-08-29T00:30:45.188Z,68.30
2023-08-29T00:33:12.876Z,68.20
2023-08-29T00:35:40.766Z,68.20
2023-08-29T00:38:08.049Z,68.30
2023-08-29T00:40:36.124Z,68.20
2023-08-29T00:43:03.996Z,68.20
2023-08-29T00:45:33.443Z,68.30
2023-08-29T00:48:04.203Z,68.20
2023-08-29T00:50:32.033Z,68.10
2023-08-29T00:53:02.080Z,68.20
2023-08-29T00:55:30.161Z,68.10
2023-08-29T00:57:57.752Z,68.00
2023-08-29T01:00:26.165Z,67.90
2023-08-29T01:02:53.112Z,67.80
2023-08-29T01:05:21.720Z,67.80
2023-08-29T01:07:53.877Z,67.80
2023-08-29T01:10:37.337Z,67.80
2023-08-29T01:13:34.885Z,67.70
2023-08-29T01:16:06.264Z,67.50
2023-08-29T01:18:35.192Z,67.60
2023-08-29T01:21:23.503Z,67.60
2023-08-29T01:24:11.918Z,67.60
2023-08-29T01:26:39.588Z,67.70
2023-08-29T01:29:06.582Z,67.70
2023-08-29T01:31:37.509Z,67.70
2023-08-29T01:34:04.926Z,67.60
2023-08-29T01:36:44.332Z,67.50
2023-08-29T01:39:11.598Z,67.50
2023-08-29T01:41:39.702Z,67.50
2023-08-29T01:44:06.785Z,67.50
2023-08-29T01:46:34.386Z,67.50
2023-08-29T01:49:03.569Z,67.60
2023-08-29T01:51:31.013Z,67.50
2023-08-29T01:53:58.512Z,67.40
2023-08-29T01:56:28.943Z,67.30
2023-08-29T01:58:57.223Z,67.40
2023-08-29T02:01:24.719Z,67.50
2023-08-29T02:03:52.863Z,67.50
2023-08-29T02:06:20.151Z,67.40
2023-08-29T02:08:47.166Z,67.30
2023-08-29T02:11:14.000Z,67.30
2023-08-29T02:13:40.876Z,67.20
2023-08-29T02:16:07.780Z,67.20
2023-08-29T02:18:34.799Z,67.20
2023-08-29T02:21:01.614Z,67.20
2023-08-29T02:23:28.839Z,67.10
2023-08-29T02:26:06.178Z,67.20
2023-08-29T02:28:38.845Z,67.10
2023-08-29T02:31:08.134Z,67.10
2023-08-29T02:33:38.958Z,67.20
2023-08-29T02:36:06.780Z,67.00
2023-08-29T02:38:34.445Z,67.00
2023-08-29T02:41:01.520Z,67.00
2023-08-29T02:43:28.851Z,66.90
2023-08-29T02:45:55.668Z,67.00
2023-08-29T02:48:22.496Z,66.90
2023-08-29T02:50:49.576Z,67.00
2023-08-29T02:53:17.985Z,66.80
2023-08-29T02:55:45.059Z,66.80
2023-08-29T02:58:11.943Z,66.80
2023-08-29T03:00:38.946Z,66.70
2023-08-29T03:03:06.060Z,66.70
2023-08-29T03:05:33.496Z,66.70
2023-08-29T03:08:01.314Z,66.70
2023-08-29T03:10:28.225Z,66.50
2023-08-29T03:12:55.104Z,66.50
2023-08-29T03:15:22.037Z,66.50
2023-08-29T03:17:48.954Z,66.50
2023-08-29T03:20:16.825Z,66.40
2023-08-29T03:22:43.998Z,66.40
2023-08-29T03:25:12.226Z,66.50
2023-08-29T03:27:39.085Z,66.50
2023-08-29T03:30:06.562Z,66.40
2023-08-29T03:32:33.459Z,66.40
2023-08-29T03:35:01.667Z,66.40
2023-08-29T03:37:29.188Z,66.20
2023-08-29T03:39:57.901Z,67.10
2023-08-29T03:42:24.786Z,66.20
2023-08-29T03:44:51.626Z,66.20
2023-08-29T03:47:19.937Z,66.10
2023-08-29T03:49:47.564Z,66.10
2023-08-29T03:52:27.607Z,66.10
2023-08-29T03:54:56.813Z,66.00
2023-08-29T03:57:24.172Z,66.00
2023-08-29T03:59:51.037Z,66.00
2023-08-29T04:02:19.831Z,66.00
2023-08-29T04:04:46.971Z,66.00
2023-08-29T04:07:13.962Z,66.00
2023-08-29T04:09:41.243Z,66.00
2023-08-29T04:12:09.351Z,66.00
2023-08-29T04:14:36.255Z,66.00
2023-08-29T04:17:03.223Z,66.00
2023-08-29T04:19:30.045Z,66.10
2023-08-29T04:21:57.984Z,66.10
2023-08-29T04:24:24.825Z,66.10
2023-08-29T04:26:52.128Z,66.00
2023-08-29T04:29:18.931Z,66.00
2023-08-29T04:31:45.857Z,66.00
2023-08-29T04:34:12.745Z,66.00
2023-08-29T04:36:39.615Z,65.90
2023-08-29T04:39:07.315Z,65.90
2023-08-29T04:41:34.140Z,65.90
2023-08-29T04:44:01.369Z,66.00
2023-08-29T04:46:28.188Z,66.00
2023-08-29T04:48:55.148Z,66.00
2023-08-29T04:51:22.010Z,66.10
2023-08-29T04:53:48.917Z,66.10
2023-08-29T04:56:15.748Z,66.20
2023-08-29T04:58:43.094Z,66.20
2023-08-29T05:01:10.062Z,66.20
2023-08-29T05:03:37.043Z,66.10
2023-08-29T05:06:04.143Z,66.30
2023-08-29T05:08:35.999Z,66.10
2023-08-29T05:11:03.940Z,66.10
2023-08-29T05:13:30.844Z,66.10
2023-08-29T05:15:57.673Z,66.00
2023-08-29T05:18:24.636Z,65.90
2023-08-29T05:20:53.003Z,65.90
2023-08-29T05:23:21.574Z,65.80
2023-08-29T05:25:48.514Z,66.70
2023-08-29T05:28:15.383Z,65.70
2023-08-29T05:30:43.971Z,65.70
2023-08-29T05:33:11.409Z,65.70
2023-08-29T05:35:38.260Z,65.70
2023-08-29T05:38:05.446Z,65.60
2023-08-29T05:40:34.367Z,65.60
2023-08-29T05:43:01.581Z,65.60
2023-08-29T05:45:28.459Z,65.60
2023-08-29T05:47:55.294Z,65.50
2023-08-29T05:50:22.270Z,65.50
2023-08-29T05:52:49.115Z,65.50
2023-08-29T05:55:16.037Z,65.60
2023-08-29T05:57:42.862Z,65.50
2023-08-29T06:00:11.412Z,65.60
2023-08-29T06:02:45.430Z,65.60
2023-08-29T06:05:12.502Z,65.60
2023-08-29T06:07:42.329Z,65.60
2023-08-29T06:10:09.526Z,65.70
2023-08-29T06:12:36.378Z,65.70
2023-08-29T06:15:03.292Z,65.90
2023-08-29T06:17:30.152Z,65.90
2023-08-29T06:19:57.476Z,66.50
2023-08-29T06:22:25.321Z,66.00
2023-08-29T06:24:52.204Z,66.10
2023-08-29T06:27:19.062Z,66.20
2023-08-29T06:29:45.875Z,66.30
2023-08-29T06:32:12.744Z,66.40
2023-08-29T06:34:39.547Z,66.50
2023-08-29T06:37:06.958Z,66.70
2023-08-29T06:39:34.097Z,66.90
2023-08-29T06:42:00.944Z,67.00
2023-08-29T06:44:28.092Z,67.00
2023-08-29T06:46:54.894Z,67.20
2023-08-29T06:49:21.649Z,67.20
2023-08-29T06:51:48.461Z,67.30
2023-08-29T06:54:15.293Z,68.20
2023-08-29T06:56:42.240Z,67.40
2023-08-29T06:59:09.327Z,67.50
2023-08-29T07:01:38.336Z,67.50
2023-08-29T07:04:05.722Z,67.50
2023-08-29T07:06:32.533Z,67.60
2023-08-29T07:08:59.352Z,67.60
2023-08-29T07:11:26.384Z,67.70
2023-08-29T07:13:53.162Z,67.70
2023-08-29T07:16:20.141Z,67.70
2023-08-29T07:18:47.432Z,67.80
2023-08-29T07:21:14.532Z,67.90
2023-08-29T07:23:41.477Z,68.00
2023-08-29T07:26:08.394Z,68.10
2023-08-29T07:28:35.223Z,68.10
2023-08-29T07:31:02.150Z,68.20
2023-08-29T07:33:28.939Z,68.40
2023-08-29T07:35:55.744Z,68.50
2023-08-29T07:38:22.641Z,68.50
2023-08-29T07:40:49.421Z,68.60
2023-08-29T07:43:16.905Z,68.80
2023-08-29T07:45:44.207Z,68.80
2023-08-29T07:48:11.637Z,68.90
2023-08-29T07:50:38.760Z,69.00
2023-08-29T07:53:05.653Z,69.10
2023-08-29T07:55:32.751Z,69.30
2023-08-29T07:58:00.712Z,69.50
2023-08-29T08:00:29.328Z,69.70
2023-08-29T08:02:56.768Z,69.80
2023-08-29T08:05:24.523Z,69.80
2023-08-29T08:07:51.552Z,70.00
2023-08-29T08:10:19.616Z,70.00
2023-08-29T08:12:50.485Z,70.10
2023-08-29T08:15:17.693Z,70.20
2023-08-29T08:17:45.850Z,70.30
2023-08-29T08:20:13.362Z,70.50
2023-08-29T08:22:41.546Z,70.50
2023-08-29T08:25:10.376Z,70.60
2023-08-29T08:27:37.609Z,70.70
2023-08-29T08:30:08.875Z,70.80
2023-08-29T08:32:36.200Z,70.90
2023-08-29T08:35:07.811Z,70.90
2023-08-29T08:37:35.848Z,71.00
2023-08-29T08:40:12.153Z,71.00
2023-08-29T08:42:41.964Z,71.00
2023-08-29T08:45:10.335Z,71.00
2023-08-29T08:47:38.309Z,71.10
2023-08-29T08:50:09.370Z,71.10
2023-08-29T08:52:37.170Z,71.20
2023-08-29T08:55:04.454Z,71.30
2023-08-29T08:57:32.032Z,71.40
2023-08-29T08:59:58.957Z,71.40
2023-08-29T09:02:27.015Z,71.40
2023-08-29T09:04:54.837Z,72.50
2023-08-29T09:07:21.691Z,71.60
2023-08-29T09:10:11.639Z,71.70
2023-08-29T09:12:56.782Z,71.80
2023-08-29T09:15:26.113Z,71.80
2023-08-29T09:17:54.691Z,72.00
2023-08-29T09:20:23.090Z,72.00
2023-08-29T09:22:49.860Z,72.00
2023-08-29T09:25:16.708Z,72.20
2023-08-29T09:27:46.527Z,72.20
2023-08-29T09:30:16.020Z,72.30
2023-08-29T09:32:47.821Z,72.40
2023-08-29T09:35:16.724Z,72.40
2023-08-29T09:37:48.415Z,73.30
2023-08-29T09:40:37.142Z,72.50
2023-08-29T09:43:05.902Z,72.40
2023-08-29T09:45:34.088Z,72.40
2023-08-29T09:48:07.334Z,72.30
2023-08-29T09:50:35.272Z,72.20
2023-08-29T09:53:03.929Z,72.20
2023-08-29T09:55:53.244Z,72.20
2023-08-29T09:58:24.970Z,72.20
2023-08-29T10:00:52.741Z,72.10
2023-08-29T10:03:20.708Z,72.00
2023-08-29T10:05:49.249Z,72.20
2023-08-29T10:08:34.832Z,72.30
2023-08-29T10:11:02.505Z,72.50
2023-08-29T10:13:31.036Z,72.30
2023-08-29T10:15:58.919Z,72.30
2023-08-29T10:18:27.176Z,72.40
2023-08-29T10:20:55.629Z,73.10
2023-08-29T10:23:24.079Z,72.30
2023-08-29T10:25:51.171Z,72.30
2023-08-29T10:28:19.201Z,72.20
2023-08-29T10:30:57.733Z,72.20
2023-08-29T10:33:24.642Z,72.20
2023-08-29T10:35:51.679Z,72.20
2023-08-29T10:38:19.288Z,72.40
2023-08-29T10:40:47.329Z,72.60
2023-08-29T10:43:22.007Z,72.60
2023-08-29T10:45:54.670Z,72.80
2023-08-29T10:48:31.206Z,72.80
2023-08-29T10:51:17.021Z,72.70
2023-08-29T10:53:52.661Z,72.50
2023-08-29T10:56:26.081Z,72.50
2023-08-29T10:58:55.017Z,72.40
2023-08-29T11:01:32.049Z,72.30
2023-08-29T11:04:16.868Z,72.30
2023-08-29T11:06:57.869Z,72.40
2023-08-29T11:09:26.235Z,72.20
2023-08-29T11:12:18.124Z,72.20
2023-08-29T11:14:58.800Z,72.20
2023-08-29T11:17:27.353Z,72.00
2023-08-29T11:19:56.264Z,71.90
2023-08-29T11:22:26.798Z,71.90
2023-08-29T11:24:57.733Z,71.90
2023-08-29T11:27:31.958Z,71.80
2023-08-29T11:30:25.188Z,71.70
2023-08-29T11:32:51.628Z,71.70
2023-08-29T11:35:18.859Z,71.60
2023-08-29T11:37:45.762Z,71.50
2023-08-29T11:40:18.104Z,71.40
2023-08-29T11:43:09.633Z,71.50
2023-08-29T11:45:48.859Z,71.50
2023-08-29T11:48:26.689Z,71.60
2023-08-29T11:50:58.245Z,71.60
2023-08-29T11:53:32.376Z,71.60
2023-08-29T11:56:00.338Z,71.50
2023-08-29T11:58:32.386Z,71.50
2023-08-29T12:01:02.440Z,71.40
2023-08-29T12:03:29.309Z,71.30
2023-08-29T12:05:58.294Z,71.30
2023-08-29T12:08:42.122Z,71.20
2023-08-29T12:11:10.828Z,71.10
2023-08-29T12:13:38.424Z,71.10
2023-08-29T12:16:15.054Z,71.10
2023-08-29T12:18:42.001Z,71.10
2023-08-29T12:21:15.139Z,71.10
2023-08-29T12:23:43.890Z,71.10
2023-08-29T12:26:11.950Z,71.20
2023-08-29T12:28:39.303Z,71.10
2023-08-29T12:31:08.380Z,71.10
2023-08-29T12:33:36.232Z,71.10
2023-08-29T12:36:04.147Z,71.10
2023-08-29T12:38:32.563Z,71.00
2023-08-29T12:40:59.614Z,71.00
2023-08-29T12:43:26.388Z,70.90
2023-08-29T12:45:59.296Z,70.80
2023-08-29T12:48:27.696Z,70.80
2023-08-29T12:50:54.620Z,70.80
2023-08-29T12:53:21.549Z,70.80
2023-08-29T12:55:48.379Z,70.70
2023-08-29T12:58:15.219Z,70.60
2023-08-29T13:00:43.259Z,70.60
2023-08-29T13:03:11.025Z,70.70
2023-08-29T13:05:38.157Z,70.70
2023-08-29T13:08:05.856Z,70.90
2023-08-29T13:10:33.050Z,70.80
2023-08-29T13:12:59.865Z,70.90
2023-08-29T13:15:33.944Z,70.80
2023-08-29T13:18:08.218Z,70.70
2023-08-29T13:20:35.489Z,70.60
2023-08-29T13:23:02.410Z,70.50
2023-08-29T13:25:29.863Z,70.50
2023-08-29T13:27:58.862Z,70.50
2023-08-29T13:30:25.775Z,70.40
2023-08-29T13:32:52.709Z,70.30
2023-08-29T13:35:20.116Z,70.30
2023-08-29T13:37:47.295Z,70.30
2023-08-29T13:40:14.555Z,70.20
2023-08-29T13:42:42.741Z,70.10
2023-08-29T13:45:10.056Z,70.10
2023-08-29T13:47:36.873Z,70.10
2023-08-29T13:50:04.006Z,70.00
2023-08-29T13:52:30.902Z,70.00
2023-08-29T13:54:57.938Z,70.00
2023-08-29T13:57:24.937Z,69.90
2023-08-29T13:59:51.822Z,70.00
2023-08-29T14:02:18.837Z,69.90
2023-08-29T14:04:45.819Z,69.90
2023-08-29T14:07:12.722Z,69.90
2023-08-29T14:09:39.583Z,69.90
2023-08-29T14:12:06.820Z,70.00
2023-08-29T14:14:33.590Z,70.00
2023-08-29T14:17:00.412Z,70.10
2023-08-29T14:19:27.308Z,70.10
2023-08-29T14:21:54.147Z,70.20
2023-08-29T14:24:20.989Z,70.30
2023-08-29T14:26:48.102Z,70.40
2023-08-29T14:29:15.005Z,70.40
2023-08-29T14:31:41.936Z,70.40
2023-08-29T14:34:08.867Z,70.50
2023-08-29T14:36:35.696Z,70.40
2023-08-29T14:39:02.984Z,70.30
2023-08-29T14:41:29.773Z,70.30
2023-08-29T14:43:56.920Z,70.20
2023-08-29T14:46:23.948Z,70.10
2023-08-29T14:48:50.795Z,70.10
2023-08-29T14:51:17.633Z,70.10
2023-08-29T14:53:44.528Z,70.10
2023-08-29T14:56:11.521Z,70.00
2023-08-29T14:58:38.368Z,69.90
2023-08-29T15:01:05.223Z,69.90
2023-08-29T15:03:32.255Z,69.90
2023-08-29T15:05:59.719Z,69.90
2023-08-29T15:08:27.231Z,69.80
2023-08-29T15:10:57.971Z,69.80
2023-08-29T15:13:29.048Z,69.90
2023-08-29T15:16:00.469Z,69.90
2023-08-29T15:18:27.728Z,69.80
2023-08-29T15:20:54.609Z,69.80
2023-08-29T15:23:21.930Z,69.80
2023-08-29T15:25:48.799Z,70.00
2023-08-29T15:28:15.568Z,69.90
2023-08-29T15:30:42.336Z,70.00
2023-08-29T15:33:09.277Z,70.10
2023-08-29T15:35:36.190Z,70.10
2023-08-29T15:38:03.285Z,70.10
2023-08-29T15:40:30.215Z,70.30
2023-08-29T15:42:58.962Z,70.30
2023-08-29T15:45:25.967Z,70.40
2023-08-29T15:47:53.966Z,70.40
2023-08-29T15:50:21.058Z,70.60
2023-08-29T15:52:47.864Z,70.60
2023-08-29T15:55:14.712Z,70.60
2023-08-29T15:57:41.545Z,70.60
2023-08-29T16:00:15.199Z,70.70
2023-08-29T16:02:45.426Z,70.70
2023-08-29T16:05:12.567Z,70.80
2023-08-29T16:07:39.770Z,70.80
2023-08-29T16:10:07.444Z,70.90
2023-08-29T16:12:34.279Z,71.00
2023-08-29T16:15:01.095Z,71.10
2023-08-29T16:17:28.818Z,71.00
2023-08-29T16:19:55.726Z,71.10
2023-08-29T16:22:22.627Z,71.10
2023-08-29T16:24:49.399Z,71.10
2023-08-29T16:27:17.045Z,71.10
2023-08-29T16:29:43.881Z,71.10
2023-08-29T16:32:10.702Z,71.00
2023-08-29T16:34:37.602Z,71.00
2023-08-29T16:37:05.060Z,71.10
2023-08-29T16:39:34.078Z,71.10
2023-08-29T16:42:01.148Z,71.10
2023-08-29T16:44:27.919Z,71.20
2023-08-29T16:46:54.807Z,71.30
2023-08-29T16:49:21.642Z,71.40
2023-08-29T16:51:48.410Z,71.40
2023-08-29T16:54:16.244Z,71.60
2023-08-29T16:56:43.258Z,72.60
2023-08-29T16:59:10.173Z,71.90
2023-08-29T17:01:37.760Z,72.10
2023-08-29T17:04:06.887Z,72.20
2023-08-29T17:06:34.534Z,72.30
2023-08-29T17:09:01.753Z,72.30
2023-08-29T17:11:28.635Z,72.50
2023-08-29T17:13:55.477Z,72.40
2023-08-29T17:16:23.068Z,72.50
2023-08-29T17:18:49.994Z,72.50
2023-08-29T17:21:17.868Z,72.50
2023-08-29T17:23:44.712Z,73.40
2023-08-29T17:26:11.640Z,72.50
2023-08-29T17:28:38.522Z,72.60
2023-08-29T17:31:10.522Z,72.70
2023-08-29T17:33:37.393Z,73.70
2023-08-29T17:36:07.638Z,72.80
2023-08-29T17:38:34.455Z,73.10
2023-08-29T17:41:01.895Z,73.30
2023-08-29T17:43:29.396Z,73.40
2023-08-29T18:25:31.018Z,73.90
2023-08-29T18:27:57.916Z,72.40
2023-08-29T18:30:24.858Z,72.30
2023-08-29T18:32:51.820Z,72.20
2023-08-29T18:35:18.770Z,72.20
2023-08-29T18:37:45.739Z,72.20
2023-08-29T18:40:12.849Z,72.30
2023-08-29T18:42:39.792Z,72.20
2023-08-29T19:02:40.026Z,69.30
2023-08-29T19:05:08.603Z,67.40
2023-08-29T19:07:36.051Z,67.50
2023-08-29T19:10:04.761Z,67.90
2023-08-29T19:12:32.500Z,68.10
2023-08-29T19:15:01.754Z,68.60
2023-08-29T19:17:29.277Z,68.80
2023-08-29T19:19:56.265Z,69.00
2023-08-29T19:22:23.266Z,69.20
2023-08-29T19:24:50.273Z,69.40
2023-08-29T19:27:23.769Z,69.50
2023-08-29T19:29:55.030Z,69.60
2023-08-29T19:32:22.789Z,69.70
2023-08-29T19:34:49.899Z,69.80
2023-08-29T19:37:17.609Z,69.80
2023-08-29T19:39:44.593Z,69.90
2023-08-29T19:42:11.560Z,69.90
2023-08-29T19:44:38.498Z,69.90
2023-08-29T19:47:07.037Z,69.90
2023-08-29T19:49:39.036Z,69.90
2023-08-29T19:52:07.108Z,69.80
2023-08-29T19:54:34.186Z,69.90
2023-08-29T19:57:01.093Z,69.90
2023-08-29T19:59:28.018Z,69.90
2023-08-29T20:01:54.959Z,69.90
2023-08-29T20:04:22.223Z,70.00
2023-08-29T20:06:49.172Z,70.10
2023-08-29T20:09:16.775Z,70.20
2023-08-29T20:11:45.097Z,70.40
2023-08-29T20:14:13.589Z,70.50
2023-08-29T20:16:40.573Z,70.60
2023-08-29T20:19:07.559Z,70.70
2023-08-29T20:21:34.502Z,70.80
2023-08-29T20:24:02.806Z,70.70
2023-08-29T20:26:31.424Z,70.80
2023-08-29T20:29:00.591Z,70.80
2023-08-29T20:31:28.190Z,70.60
2023-08-29T20:33:55.089Z,70.50
2023-08-29T20:36:22.223Z,70.60
2023-08-29T20:38:49.195Z,70.40
2023-08-29T20:41:16.097Z,70.50
2023-08-29T20:43:43.122Z,70.60
2023-08-29T20:46:10.056Z,70.60
2023-08-29T20:48:37.018Z,70.60
2023-08-29T20:51:04.138Z,70.60
2023-08-29T20:53:33.172Z,70.40
2023-08-29T20:56:00.238Z,70.40
2023-08-29T20:58:27.156Z,70.20
2023-08-29T21:01:01.895Z,70.00
2023-08-29T21:03:30.425Z,70.70
2023-08-29T21:06:00.605Z,69.90
2023-08-29T21:08:28.296Z,69.80
2023-08-29T21:10:55.583Z,69.70
2023-08-29T21:13:23.694Z,69.60
2023-08-29T21:15:51.253Z,69.90
2023-08-29T21:18:19.801Z,69.90
2023-08-29T21:20:49.862Z,69.90
2023-08-29T21:23:16.838Z,69.90
2023-08-29T21:25:50.866Z,69.90
2023-08-29T21:28:19.175Z,69.60
2023-08-29T21:30:46.946Z,69.40
2023-08-29T21:33:14.349Z,69.30
2023-08-29T21:35:42.647Z,69.30
2023-08-29T21:38:11.383Z,69.30
2023-08-29T21:40:40.258Z,69.40
2023-08-29T21:43:12.492Z,69.30
2023-08-29T21:45:42.776Z,69.10
2023-08-29T21:48:11.499Z,69.00
2023-08-29T21:50:42.835Z,69.00
2023-08-29T21:53:11.243Z,69.10
2023-08-29T21:55:39.877Z,68.90
2023-08-29T21:58:08.598Z,68.90
2023-08-29T22:00:35.957Z,68.80
2023-08-29T22:03:03.412Z,68.80
2023-08-29T22:05:31.944Z,68.80
2023-08-29T22:07:59.746Z,68.90
2023-08-29T22:10:26.829Z,68.80
2023-08-29T22:12:53.845Z,68.80
2023-08-29T22:15:21.235Z,68.80
2023-08-29T22:17:48.359Z,68.90
2023-08-29T22:20:16.057Z,68.90
2023-08-29T22:22:43.258Z,68.80
2023-08-29T22:25:10.935Z,68.70
2023-08-29T22:27:38.064Z,68.60
2023-08-29T22:30:06.460Z,68.60
2023-08-29T22:32:34.170Z,68.50
2023-08-29T22:35:01.699Z,68.40
2023-08-29T22:37:28.955Z,68.50
2023-08-29T22:39:55.876Z,68.40
2023-08-29T22:42:23.300Z,68.40
2023-08-29T22:44:50.219Z,68.30
2023-08-29T22:47:17.651Z,68.30
2023-08-29T22:49:44.822Z,68.30
2023-08-29T22:52:12.701Z,68.20
2023-08-29T22:54:39.735Z,68.10
2023-08-29T22:57:06.759Z,68.10
2023-08-29T22:59:33.693Z,68.10
2023-08-29T23:02:00.601Z,68.10
2023-08-29T23:04:30.363Z,68.00
2023-08-29T23:07:05.372Z,68.10
2023-08-29T23:09:32.986Z,68.10
2023-08-29T23:12:01.039Z,68.20
2023-08-29T23:14:29.094Z,68.30
2023-08-29T23:16:57.661Z,68.30
2023-08-29T23:19:25.320Z,68.40
2023-08-29T23:21:55.834Z,68.30
2023-08-29T23:24:23.344Z,68.40
2023-08-29T23:26:50.435Z,68.40
2023-08-29T23:29:17.953Z,68.40
2023-08-29T23:31:45.363Z,68.40
2023-08-29T23:34:12.371Z,68.40
2023-08-29T23:36:39.455Z,68.40
2023-08-29T23:39:08.296Z,68.50
2023-08-29T23:41:35.719Z,68.50
2023-08-29T23:44:02.775Z,68.40
2023-08-29T23:46:30.135Z,68.50
2023-08-29T23:48:57.066Z,68.50
2023-08-29T23:51:23.957Z,68.50
2023-08-29T23:53:51.515Z,68.50
2023-08-29T23:56:18.901Z,68.50
2023-08-29T23:58:46.549Z,68.50
